createdAt,value
2022-09-01T00:01:52.498Z,101624.75
2022-09-01T00:04:59.523Z,101628.19
2022-09-01T00:08:06.806Z,101629.81
2022-09-01T00:11:13.474Z,101624.66
2022-09-01T00:14:29.739Z,101624.59
2022-09-01T00:17:38.713Z,101625.47
2022-09-01T00:20:45.139Z,101624.44
2022-09-01T00:23:51.687Z,101626.03
2022-09-01T00:26:59.211Z,101628.53
2022-09-01T00:30:07.784Z,101640.44
2022-09-01T00:33:15.974Z,101650.63
2022-09-01T00:36:23.206Z,101655.78
2022-09-01T00:39:29.571Z,101660.84
2022-09-01T00:42:35.887Z,101661.56
2022-09-01T00:45:43.083Z,101656.22
2022-09-01T00:48:58.151Z,101661.28
2022-09-01T00:52:15.461Z,101662.88
2022-09-01T00:55:27.745Z,101669.59
2022-09-01T00:58:37.755Z,101671.19
2022-09-01T01:01:45.385Z,101679.63
2022-09-01T01:04:56.109Z,101675.22
2022-09-01T01:08:05.521Z,101686.31
2022-09-01T01:11:17.803Z,101679.31
2022-09-01T01:14:24.474Z,101691.22
2022-09-01T01:17:30.763Z,101691.16
2022-09-01T01:20:55.540Z,101690.97
2022-09-01T01:24:16.291Z,101683.13
2022-09-01T01:27:24.308Z,101680.47
2022-09-01T01:30:36.900Z,101687.38
2022-09-01T01:33:47.239Z,101688.06
2022-09-01T01:36:53.982Z,101684.56
2022-09-01T01:40:00.884Z,101683.63
2022-09-01T01:43:12.152Z,101676.69
2022-09-01T01:46:19.262Z,101674.94
2022-09-01T01:49:31.157Z,101677.31
2022-09-01T01:52:37.775Z,101673.06
2022-09-01T01:55:44.674Z,101667.00
2022-09-01T01:58:56.339Z,101667.00
2022-09-01T02:02:09.828Z,101676.19
2022-09-01T02:05:20.893Z,101679.63
2022-09-01T02:08:27.524Z,101672.69
2022-09-01T02:11:37.908Z,101674.41
2022-09-01T02:14:48.581Z,101670.09
2022-09-01T02:17:57.164Z,101668.38
2022-09-01T02:21:15.014Z,101660.53
2022-09-01T02:24:26.188Z,101660.50
2022-09-01T02:27:36.756Z,101658.78
2022-09-01T02:30:46.278Z,101657.13
2022-09-01T02:33:54.366Z,101655.31
2022-09-01T02:37:01.197Z,101644.97
2022-09-01T02:40:11.303Z,101645.66
2022-09-01T02:43:19.540Z,101654.25
2022-09-01T02:46:29.614Z,101648.09
2022-09-01T02:49:36.083Z,101648.06
2022-09-01T02:52:42.908Z,101637.81
2022-09-01T02:55:49.183Z,101650.53
2022-09-01T02:58:56.634Z,101652.22
2022-09-01T03:02:08.249Z,101642.66
2022-09-01T03:05:16.483Z,101646.00
2022-09-01T03:08:24.523Z,101656.06
2022-09-01T03:11:33.798Z,101650.88
2022-09-01T03:14:40.398Z,101655.03
2022-09-01T03:17:48.839Z,101653.97
2022-09-01T03:20:56.231Z,101657.41
2022-09-01T03:24:03.701Z,101657.22
2022-09-01T03:27:11.702Z,101658.06
2022-09-01T03:30:18.504Z,101654.56
2022-09-01T03:33:29.722Z,101656.94
2022-09-01T03:36:36.722Z,101651.75
2022-09-01T03:39:43.402Z,101655.06
2022-09-01T03:42:52.688Z,101651.50
2022-09-01T03:46:00.904Z,101645.50
2022-09-01T03:49:13.259Z,101654.75
2022-09-01T03:52:20.026Z,101656.19
2022-09-01T03:55:32.361Z,101656.97
2022-09-01T03:58:39.276Z,101654.38
2022-09-01T04:01:46.535Z,101650.81
2022-09-01T04:04:58.965Z,101652.41
2022-09-01T04:08:10.317Z,101656.41
2022-09-01T04:11:24.159Z,101663.97
2022-09-01T04:14:32.066Z,101643.44
2022-09-01T04:17:55.742Z,101649.53
2022-09-01T04:21:07.123Z,101645.09
2022-09-01T04:24:14.817Z,101660.38
2022-09-01T04:27:24.740Z,101649.16
2022-09-01T04:30:33.681Z,101658.53
2022-09-01T04:33:40.575Z,101655.03
2022-09-01T04:36:49.943Z,101654.13
2022-09-01T04:39:58.683Z,101656.53
2022-09-01T04:43:06.802Z,101659.03
2022-09-01T04:46:14.380Z,101654.56
2022-09-01T04:49:26.371Z,101664.69
2022-09-01T04:52:35.806Z,101666.22
2022-09-01T04:55:44.382Z,101672.09
2022-09-01T04:58:54.063Z,101657.50
2022-09-01T05:02:01.730Z,101657.44
2022-09-01T05:05:12.576Z,101650.66
2022-09-01T05:08:24.972Z,101659.06
2022-09-01T05:11:37.414Z,101668.38
2022-09-01T05:14:50.666Z,101668.44
2022-09-01T05:17:58.491Z,101663.28
2022-09-01T05:21:10.983Z,101655.72
2022-09-01T05:24:22.689Z,101657.63
2022-09-01T05:27:29.510Z,101639.03
2022-09-01T05:30:36.644Z,101637.31
2022-09-01T05:33:46.068Z,101640.84
2022-09-01T05:36:54.809Z,101642.72
2022-09-01T05:40:03.398Z,101649.75
2022-09-01T05:43:12.735Z,101641.44
2022-09-01T05:46:23.585Z,101641.72
2022-09-01T05:49:33.275Z,101638.44
2022-09-01T05:52:47.885Z,101630.28
2022-09-01T05:55:57.478Z,101634.84
2022-09-01T06:02:33.831Z,101630.41
2022-09-01T06:05:40.854Z,101622.25
2022-09-01T06:08:51.528Z,101627.00
2022-09-01T06:12:01.815Z,101616.94
2022-09-01T06:15:16.233Z,101620.81
2022-09-01T06:18:27.719Z,101599.72
2022-09-01T06:21:37.392Z,101593.19
2022-09-01T06:24:45.563Z,101589.91
2022-09-01T06:27:55.184Z,101579.84
2022-09-01T06:31:07.252Z,101576.59
2022-09-01T06:34:18.203Z,101574.16
2022-09-01T06:37:25.678Z,101569.25
2022-09-01T06:40:36.290Z,101571.09
2022-09-01T06:43:44.603Z,101571.41
2022-09-01T06:46:52.058Z,101552.75
2022-09-01T06:49:59.418Z,101547.69
2022-09-01T06:56:45.033Z,101533.72
2022-09-01T07:00:07.462Z,101525.31
2022-09-01T07:03:15.730Z,101529.75
2022-09-01T07:10:24.616Z,101504.44
2022-09-01T07:14:15.059Z,101514.78
2022-09-01T07:17:29.428Z,101521.81
2022-09-01T07:21:03.108Z,101521.06
2022-09-01T07:24:10.625Z,101504.78
2022-09-01T07:27:19.972Z,101495.50
2022-09-01T07:30:33.442Z,101496.38
2022-09-01T07:33:41.840Z,101488.72
2022-09-01T07:44:14.927Z,101480.97
2022-09-01T07:54:23.950Z,101468.13
2022-09-01T07:57:32.007Z,101464.69
2022-09-01T08:00:39.899Z,101438.59
2022-09-01T08:03:49.883Z,101423.03
2022-09-01T08:06:57.819Z,101428.03
2022-09-01T08:10:07.623Z,101417.38
2022-09-01T08:13:20.008Z,101406.63
2022-09-01T08:16:39.251Z,101376.84
2022-09-01T08:19:48.165Z,101388.94
2022-09-01T08:23:03.800Z,101375.53
2022-09-01T08:26:16.938Z,101373.63
2022-09-01T08:29:23.337Z,101331.69
2022-09-01T08:32:29.715Z,101324.97
2022-09-01T08:35:36.154Z,101286.47
2022-09-01T08:38:44.346Z,101296.75
2022-09-01T08:42:08.674Z,101260.59
2022-09-01T08:45:25.003Z,101236.91
2022-09-01T08:52:17.232Z,101194.22
2022-09-01T08:55:35.647Z,101221.63
2022-09-01T08:58:42.954Z,101240.78
2022-09-01T09:02:47.886Z,101168.41
2022-09-01T09:06:09.456Z,101177.19
2022-09-01T09:09:16.035Z,101142.97
2022-09-01T09:12:49.380Z,101154.78
2022-09-01T09:16:08.023Z,101140.22
2022-09-01T09:19:22.421Z,101129.28
2022-09-01T09:22:29.236Z,101185.75
2022-09-01T09:25:35.742Z,101208.94
2022-09-01T09:28:43.638Z,101168.03
2022-09-01T09:31:51.448Z,101186.56
2022-09-01T09:35:22.246Z,101210.09
2022-09-01T09:38:31.490Z,101172.66
2022-09-01T09:41:41.281Z,101161.22
2022-09-01T09:44:52.905Z,101180.81
2022-09-01T09:48:00.122Z,101205.47
2022-09-01T09:51:19.222Z,101188.78
2022-09-01T09:54:28.801Z,101176.88
2022-09-01T09:57:41.554Z,101213.19
2022-09-01T10:01:04.042Z,101184.84
2022-09-01T10:04:11.557Z,101148.50
2022-09-01T10:07:34.517Z,101130.91
2022-09-01T10:10:45.698Z,101135.63
2022-09-01T10:14:07.036Z,101108.91
2022-09-01T10:17:18.670Z,101135.03
2022-09-01T10:20:27.922Z,101148.81
2022-09-01T10:23:38.815Z,101121.75
2022-09-01T10:26:49.816Z,101127.03
2022-09-01T10:30:13.882Z,101130.94
2022-09-01T10:33:25.729Z,101122.34
2022-09-01T10:36:33.684Z,101120.94
2022-09-01T10:40:20.634Z,101111.47
2022-09-01T10:43:41.094Z,101117.53
2022-09-01T10:46:50.882Z,101152.91
2022-09-01T10:50:25.539Z,101111.94
2022-09-01T10:53:42.786Z,101139.47
2022-09-01T10:56:53.423Z,101140.53
2022-09-01T11:01:41.055Z,101117.66
2022-09-01T11:05:20.948Z,101107.09
2022-09-01T11:08:50.729Z,101091.31
2022-09-01T11:12:33.457Z,101086.75
2022-09-01T11:15:42.310Z,101129.91
2022-09-01T11:18:51.188Z,101084.41
2022-09-01T11:22:32.636Z,101050.34
2022-09-01T11:25:43.853Z,101026.19
2022-09-01T11:28:50.620Z,101045.50
2022-09-01T11:31:57.628Z,101059.16
2022-09-01T11:35:08.102Z,101078.63
2022-09-01T11:38:19.895Z,101081.22
2022-09-01T11:41:32.145Z,101070.84
2022-09-01T11:44:47.006Z,101030.34
2022-09-01T11:47:57.774Z,101004.09
2022-09-01T11:51:05.962Z,100986.59
2022-09-01T11:54:14.630Z,101013.50
2022-09-01T11:57:30.141Z,101013.16
2022-09-01T12:00:40.242Z,101010.09
2022-09-01T12:03:48.596Z,101004.19
2022-09-01T12:06:59.217Z,101015.22
2022-09-01T12:10:19.126Z,101002.22
2022-09-01T12:13:25.998Z,100991.13
2022-09-01T12:16:37.088Z,100984.09
2022-09-01T12:19:43.679Z,100956.53
2022-09-01T12:22:50.284Z,100943.72
2022-09-01T12:26:01.170Z,100928.75
2022-09-01T12:29:08.033Z,100937.56
2022-09-01T12:32:16.930Z,100897.75
2022-09-01T12:35:25.943Z,100884.25
2022-09-01T12:38:32.622Z,100912.31
2022-09-01T12:41:41.476Z,100929.06
2022-09-01T12:44:51.567Z,100910.50
2022-09-01T12:47:58.221Z,100906.06
2022-09-01T12:51:09.403Z,100896.59
2022-09-01T12:54:16.974Z,100874.09
2022-09-01T12:57:31.547Z,100882.03
2022-09-01T13:00:56.400Z,100850.53
2022-09-01T13:04:29.753Z,100861.59
2022-09-01T13:07:36.385Z,100885.47
2022-09-01T13:10:45.719Z,100929.09
2022-09-01T13:13:53.365Z,100900.88
2022-09-01T13:17:01.255Z,100866.72
2022-09-01T13:20:09.540Z,100860.34
2022-09-01T13:23:17.459Z,100829.56
2022-09-01T13:26:24.102Z,100814.63
2022-09-01T13:29:32.390Z,100859.94
2022-09-01T13:33:18.860Z,100911.34
2022-09-01T13:36:42.563Z,100958.13
2022-09-01T13:39:33.618Z,100987.47
2022-09-01T13:42:40.171Z,100950.59
2022-09-01T13:45:47.868Z,100916.84
2022-09-01T13:52:21.644Z,100936.63
2022-09-01T13:55:31.229Z,100957.16
2022-09-01T13:58:37.561Z,100983.94
2022-09-01T14:01:46.275Z,100974.84
2022-09-01T14:04:53.159Z,100991.19
2022-09-01T14:08:01.442Z,101015.19
2022-09-01T14:11:08.122Z,101041.56
2022-09-01T14:14:14.350Z,101060.78
2022-09-01T14:17:22.013Z,101048.06
2022-09-01T14:20:36.777Z,101029.38
2022-09-01T14:23:44.075Z,101028.06
2022-09-01T14:26:51.074Z,101032.78
2022-09-01T14:29:57.826Z,101052.47
2022-09-01T14:33:07.763Z,101080.34
2022-09-01T14:36:22.029Z,101077.69
2022-09-01T14:39:28.663Z,101059.41
2022-09-01T14:42:37.191Z,101051.88
2022-09-01T14:45:45.928Z,101025.63
2022-09-01T14:48:53.815Z,100976.19
2022-09-01T14:52:17.753Z,100996.78
2022-09-01T14:55:27.368Z,101031.69
2022-09-01T14:58:33.780Z,101050.22
2022-09-01T15:01:40.234Z,101055.47
2022-09-01T15:04:48.074Z,101060.00
2022-09-01T15:07:55.122Z,101042.25
2022-09-01T15:11:02.476Z,101040.75
2022-09-01T15:14:09.502Z,101007.22
2022-09-01T15:17:15.640Z,101003.69
2022-09-01T15:20:41.519Z,100999.59
2022-09-01T15:23:48.583Z,101035.94
2022-09-01T15:26:55.246Z,101066.88
2022-09-01T15:30:01.486Z,101057.28
2022-09-01T15:33:15.209Z,101077.28
2022-09-01T15:36:26.783Z,101079.91
2022-09-01T15:39:38.358Z,101051.00
2022-09-01T15:42:45.516Z,101062.59
2022-09-01T15:45:51.798Z,101058.25
2022-09-01T15:48:58.525Z,101041.03
2022-09-01T15:52:06.626Z,101063.16
2022-09-01T15:55:13.295Z,101079.16
2022-09-01T15:58:21.089Z,101074.72
2022-09-01T16:01:28.574Z,101079.25
2022-09-01T16:04:35.384Z,101055.88
2022-09-01T16:07:43.322Z,101062.06
2022-09-01T16:10:50.179Z,101089.31
2022-09-01T16:14:01.290Z,101119.19
2022-09-01T16:17:13.396Z,101081.50
2022-09-01T16:20:23.784Z,101067.59
2022-09-01T16:23:41.738Z,101051.66
2022-09-01T16:26:50.366Z,101061.88
2022-09-01T16:30:00.139Z,101081.03
2022-09-01T16:33:19.808Z,101104.16
2022-09-01T16:36:38.101Z,101137.00
2022-09-01T16:39:51.828Z,101126.31
2022-09-01T16:43:07.648Z,101129.72
2022-09-01T16:46:23.267Z,101119.44
2022-09-01T16:49:36.490Z,101137.28
2022-09-01T16:53:05.676Z,101145.84
2022-09-01T16:56:22.418Z,101142.63
2022-09-01T16:59:40.580Z,101156.00
2022-09-01T17:02:53.014Z,101156.47
2022-09-01T17:06:13.757Z,101171.44
2022-09-01T17:09:28.233Z,101172.47
2022-09-01T17:12:42.321Z,101186.56
2022-09-01T17:15:56.529Z,101180.44
2022-09-01T17:19:07.497Z,101183.09
2022-09-01T17:22:16.104Z,101184.09
2022-09-01T17:25:31.780Z,101186.97
2022-09-01T17:28:46.432Z,101181.66
2022-09-01T17:32:03.363Z,101188.69
2022-09-01T17:35:20.559Z,101189.13
2022-09-01T17:38:36.811Z,101187.53
2022-09-01T17:41:52.830Z,101209.53
2022-09-01T17:45:15.112Z,101219.22
2022-09-01T17:48:31.162Z,101223.78
2022-09-01T17:51:45.647Z,101227.47
2022-09-01T17:55:00.151Z,101232.78
2022-09-01T17:58:17.138Z,101236.47
2022-09-01T18:01:33.699Z,101252.19
2022-09-01T18:04:54.242Z,101253.19
2022-09-01T18:08:13.555Z,101256.75
2022-09-01T18:11:27.056Z,101268.19
2022-09-01T18:14:40.719Z,101273.56
2022-09-01T18:17:54.765Z,101285.81
2022-09-01T18:21:06.734Z,101289.41
2022-09-01T18:24:17.865Z,101297.28
2022-09-01T18:27:27.713Z,101316.41
2022-09-01T18:30:52.984Z,101312.19
2022-09-01T18:34:11.759Z,101325.28
2022-09-01T18:37:30.602Z,101336.63
2022-09-01T18:40:51.509Z,101345.34
2022-09-01T18:44:26.520Z,101341.94
2022-09-01T18:47:36.341Z,101346.28
2022-09-01T18:50:52.020Z,101356.69
2022-09-01T18:54:05.251Z,101355.84
2022-09-01T18:57:18.952Z,101357.59
2022-09-01T19:00:31.221Z,101368.81
2022-09-01T19:03:47.074Z,101374.00
2022-09-01T19:07:05.118Z,101380.88
2022-09-01T19:10:19.399Z,101381.72
2022-09-01T19:13:44.232Z,101380.84
2022-09-01T19:17:10.631Z,101380.84
2022-09-01T19:20:24.358Z,101382.53
2022-09-01T19:23:43.140Z,101379.94
2022-09-01T19:26:56.339Z,101377.34
2022-09-01T19:30:07.759Z,101367.81
2022-09-01T19:33:19.911Z,101369.53
2022-09-01T19:36:40.553Z,101371.25
2022-09-01T19:39:54.115Z,101358.31
2022-09-01T19:43:07.288Z,101347.94
2022-09-01T19:46:28.079Z,101342.72
2022-09-01T19:50:09.743Z,101341.00
2022-09-01T19:53:33.309Z,101338.38
2022-09-01T19:56:51.847Z,101324.56
2022-09-01T20:00:09.592Z,101321.94
2022-09-01T20:03:22.530Z,101321.94
2022-09-01T20:06:52.135Z,101323.66
2022-09-01T20:10:15.875Z,101321.88
2022-09-01T20:13:46.025Z,101323.56
2022-09-01T20:16:57.068Z,101328.69
2022-09-01T20:20:11.653Z,101325.19
2022-09-01T20:23:27.686Z,101333.75
2022-09-01T20:26:47.394Z,101343.13
2022-09-01T20:30:03.222Z,101340.47
2022-09-01T20:33:17.569Z,101343.91
2022-09-01T20:36:32.283Z,101343.84
2022-09-01T20:40:01.599Z,101346.34
2022-09-01T20:43:18.548Z,101353.13
2022-09-01T20:46:26.907Z,101360.84
2022-09-01T20:49:34.748Z,101360.75
2022-09-01T20:52:58.881Z,101360.66
2022-09-01T20:56:13.080Z,101356.22
2022-09-01T20:59:31.386Z,101361.34
2022-09-01T21:02:52.556Z,101361.25
2022-09-01T21:06:09.723Z,101355.19
2022-09-01T21:09:33.137Z,101356.00
2022-09-01T21:12:44.410Z,101361.09
2022-09-01T21:15:59.277Z,101356.72
2022-09-01T21:19:19.606Z,101350.59
2022-09-01T21:22:26.341Z,101355.72
2022-09-01T21:25:33.012Z,101345.41
2022-09-01T21:28:39.507Z,101347.91
2022-09-01T21:31:46.964Z,101344.44
2022-09-01T21:34:54.699Z,101343.50
2022-09-01T21:38:01.105Z,101346.91
2022-09-01T21:41:13.034Z,101344.25
2022-09-01T21:44:19.870Z,101339.03
2022-09-01T21:47:28.004Z,101349.25
2022-09-01T21:50:35.990Z,101350.94
2022-09-01T21:53:43.308Z,101347.41
2022-09-01T21:56:53.207Z,101340.53
2022-09-01T21:59:59.541Z,101341.28
2022-09-01T22:03:06.658Z,101336.09
2022-09-01T22:06:15.225Z,101330.06
2022-09-01T22:09:23.018Z,101325.72
2022-09-01T22:12:29.415Z,101331.69
2022-09-01T22:15:35.882Z,101323.09
2022-09-01T22:18:42.204Z,101318.78
2022-09-01T22:21:50.180Z,101325.66
2022-09-01T22:24:56.503Z,101325.63
2022-09-01T22:28:06.144Z,101314.41
2022-09-01T22:31:14.862Z,101318.63
2022-09-01T22:34:21.410Z,101313.47
2022-09-01T22:37:29.088Z,101320.28
2022-09-01T22:40:35.933Z,101308.25
2022-09-01T22:43:42.112Z,101311.63
2022-09-01T22:46:48.463Z,101308.09
2022-09-01T22:49:56.106Z,101306.31
2022-09-01T22:53:04.108Z,101301.25
2022-09-01T22:56:17.634Z,101296.09
2022-09-01T22:59:24.362Z,101300.28
2022-09-01T23:02:31.084Z,101300.19
2022-09-01T23:05:37.522Z,101297.53
2022-09-01T23:08:46.207Z,101300.00
2022-09-01T23:11:52.782Z,101297.38
2022-09-01T23:14:59.530Z,101296.53
2022-09-01T23:18:06.307Z,101290.47
2022-09-01T23:21:15.489Z,101296.50
2022-09-01T23:24:23.595Z,101287.81
2022-09-01T23:27:29.782Z,101286.03
2022-09-01T23:30:36.085Z,101282.56
2022-09-01T23:33:43.104Z,101274.88
2022-09-01T23:36:49.859Z,101270.59
2022-09-01T23:39:57.833Z,101260.31
2022-09-01T23:43:04.533Z,101258.53
2022-09-01T23:46:19.412Z,101265.31
2022-09-01T23:49:26.763Z,101261.84
2022-09-01T23:52:34.537Z,101253.25
2022-09-01T23:55:47.498Z,101260.06
2022-09-01T23:58:54.430Z,101261.72
